createdAt,value
2023-01-22T00:01:21.635Z,1.90
2023-01-22T00:03:52.477Z,1.90
2023-01-22T00:06:25.223Z,1.90
2023-01-22T00:08:55.893Z,1.90
2023-01-22T00:11:23.322Z,2.00
2023-01-22T00:13:53.047Z,2.00
2023-01-22T00:16:21.648Z,2.10
2023-01-22T00:18:49.009Z,2.30
2023-01-22T00:21:18.635Z,2.30
2023-01-22T00:23:48.362Z,2.20
2023-01-22T00:26:17.925Z,2.40
2023-01-22T00:28:49.848Z,2.30
2023-01-22T00:31:17.816Z,2.20
2023-01-22T00:33:48.996Z,2.30
2023-01-22T00:36:21.371Z,2.30
2023-01-22T00:38:49.910Z,2.30
2023-01-22T00:41:22.941Z,2.40
2023-01-22T00:43:52.740Z,2.50
2023-01-22T00:46:22.864Z,2.50
2023-01-22T00:48:53.275Z,2.50
2023-01-22T00:51:22.728Z,2.30
2023-01-22T00:53:57.127Z,2.20
2023-01-22T00:56:29.069Z,1.90
2023-01-22T00:58:58.577Z,1.70
2023-01-22T01:01:25.948Z,1.80
2023-01-22T01:03:53.201Z,1.80
2023-01-22T01:06:23.312Z,1.70
2023-01-22T01:08:50.790Z,1.80
2023-01-22T01:11:23.937Z,2.00
2023-01-22T01:13:52.463Z,2.00
2023-01-22T01:16:21.447Z,1.90
2023-01-22T01:18:51.782Z,1.90
2023-01-22T01:21:19.399Z,1.90
2023-01-22T01:23:46.963Z,1.90
2023-01-22T01:26:17.830Z,1.90
2023-01-22T01:28:45.726Z,2.20
2023-01-22T01:31:16.258Z,2.10
2023-01-22T01:33:46.314Z,2.10
2023-01-22T01:36:40.505Z,2.00
2023-01-22T01:39:10.923Z,2.20
2023-01-22T01:41:38.304Z,2.00
2023-01-22T01:44:20.960Z,1.90
2023-01-22T01:46:50.080Z,1.90
2023-01-22T01:49:29.706Z,1.90
2023-01-22T01:52:00.986Z,2.10
2023-01-22T01:54:31.645Z,2.20
2023-01-22T01:57:14.827Z,2.30
2023-01-22T01:59:45.279Z,2.50
2023-01-22T02:02:15.194Z,2.60
2023-01-22T02:04:42.501Z,2.60
2023-01-22T02:07:09.740Z,2.60
2023-01-22T02:09:37.149Z,2.70
2023-01-22T02:12:04.603Z,2.60
2023-01-22T02:14:34.916Z,2.50
2023-01-22T02:17:12.954Z,2.60
2023-01-22T02:19:44.119Z,2.80
2023-01-22T02:22:30.856Z,2.80
2023-01-22T02:24:58.348Z,2.80
2023-01-22T02:27:26.025Z,2.80
2023-01-22T02:29:53.310Z,2.70
2023-01-22T02:32:20.606Z,2.70
2023-01-22T02:34:47.889Z,2.80
2023-01-22T02:37:15.117Z,2.90
2023-01-22T02:39:44.847Z,2.90
2023-01-22T02:42:14.834Z,2.80
2023-01-22T02:44:42.099Z,3.00
2023-01-22T02:47:09.390Z,3.20
2023-01-22T02:49:36.642Z,3.00
2023-01-22T02:52:04.311Z,2.90
2023-01-22T02:54:31.582Z,2.70
2023-01-22T02:56:58.921Z,2.70
2023-01-22T02:59:26.238Z,2.60
2023-01-22T03:01:57.214Z,2.70
2023-01-22T03:04:24.625Z,2.70
2023-01-22T03:06:54.191Z,2.50
2023-01-22T03:09:21.419Z,2.40
2023-01-22T03:11:48.883Z,2.20
2023-01-22T03:14:36.822Z,2.40
2023-01-22T03:17:25.619Z,2.70
2023-01-22T03:20:11.591Z,2.80
2023-01-22T03:22:38.814Z,2.50
2023-01-22T03:25:06.503Z,2.40
2023-01-22T03:27:36.647Z,2.30
2023-01-22T03:30:04.486Z,2.20
2023-01-22T03:32:33.895Z,2.30
2023-01-22T03:35:01.825Z,2.40
2023-01-22T03:37:29.273Z,2.60
2023-01-22T03:40:00.198Z,2.70
2023-01-22T03:42:27.407Z,2.80
2023-01-22T03:44:54.736Z,2.50
2023-01-22T03:47:24.204Z,2.30
2023-01-22T03:49:51.465Z,2.20
2023-01-22T03:52:18.733Z,2.20
2023-01-22T03:54:45.946Z,2.20
2023-01-22T03:57:15.285Z,2.10
2023-01-22T03:59:44.979Z,2.10
2023-01-22T04:02:12.301Z,1.90
2023-01-22T04:04:39.563Z,2.10
2023-01-22T04:07:08.931Z,2.20
2023-01-22T04:09:38.752Z,2.40
2023-01-22T04:12:08.348Z,2.60
2023-01-22T04:14:38.023Z,2.60
2023-01-22T04:17:05.381Z,2.60
2023-01-22T04:19:32.593Z,2.70
2023-01-22T04:21:59.847Z,2.80
2023-01-22T04:24:27.086Z,2.90
2023-01-22T04:26:56.439Z,3.00
2023-01-22T04:29:23.753Z,3.10
2023-01-22T04:31:53.504Z,3.20
2023-01-22T04:34:23.395Z,3.30
2023-01-22T04:36:50.609Z,3.30
2023-01-22T04:39:17.885Z,3.30
2023-01-22T04:41:47.664Z,3.30
2023-01-22T04:44:17.364Z,3.50
2023-01-22T04:46:49.449Z,3.60
2023-01-22T04:49:21.858Z,3.60
2023-01-22T04:51:49.084Z,3.60
2023-01-22T04:54:18.781Z,3.50
2023-01-22T04:56:46.155Z,3.40
2023-01-22T04:59:15.868Z,3.30
2023-01-22T05:01:45.366Z,3.20
2023-01-22T05:04:15.170Z,3.10
2023-01-22T05:06:42.522Z,3.20
2023-01-22T05:09:14.516Z,3.20
2023-01-22T05:11:41.834Z,3.20
2023-01-22T05:14:11.455Z,3.10
2023-01-22T05:16:47.023Z,3.00
2023-01-22T05:19:16.725Z,2.80
2023-01-22T05:21:44.016Z,2.70
2023-01-22T05:24:11.341Z,2.60
2023-01-22T05:26:38.603Z,2.40
2023-01-22T05:29:08.220Z,2.20
2023-01-22T05:31:35.485Z,2.20
2023-01-22T05:34:03.867Z,2.00
2023-01-22T05:36:31.553Z,1.90
2023-01-22T05:39:01.376Z,1.90
2023-01-22T05:41:28.598Z,1.90
2023-01-22T05:43:55.857Z,1.90
2023-01-22T05:46:25.487Z,1.80
2023-01-22T05:48:52.717Z,1.50
2023-01-22T05:51:20.044Z,1.40
2023-01-22T05:53:47.317Z,1.40
2023-01-22T05:56:14.723Z,1.40
2023-01-22T05:58:42.229Z,1.50
2023-01-22T06:01:09.848Z,1.60
2023-01-22T06:03:37.203Z,1.70
2023-01-22T06:06:13.562Z,1.80
2023-01-22T06:08:41.449Z,1.90
2023-01-22T06:11:15.006Z,2.00
2023-01-22T06:13:42.469Z,2.00
2023-01-22T06:16:12.370Z,2.10
2023-01-22T06:18:41.749Z,2.10
2023-01-22T06:21:09.625Z,2.10
2023-01-22T06:23:36.871Z,2.10
2023-01-22T06:26:05.288Z,2.10
2023-01-22T06:28:32.519Z,2.00
2023-01-22T06:31:05.865Z,1.80
2023-01-22T06:33:37.226Z,1.70
2023-01-22T06:36:05.990Z,1.60
2023-01-22T06:38:33.288Z,1.60
2023-01-22T06:41:02.882Z,1.50
2023-01-22T06:43:30.167Z,1.40
2023-01-22T06:45:57.396Z,1.30
2023-01-22T06:48:26.877Z,1.30
2023-01-22T06:50:58.587Z,1.30
2023-01-22T06:53:26.287Z,1.30
2023-01-22T06:55:53.787Z,1.40
2023-01-22T06:58:21.133Z,1.20
2023-01-22T07:00:50.886Z,1.20
2023-01-22T07:03:18.128Z,1.10
2023-01-22T07:05:45.510Z,1.10
2023-01-22T07:08:17.216Z,1.20
2023-01-22T07:10:44.637Z,1.20
2023-01-22T07:13:15.997Z,1.30
2023-01-22T07:15:43.288Z,1.30
2023-01-22T07:18:14.608Z,1.40
2023-01-22T07:20:42.395Z,1.40
2023-01-22T07:23:10.128Z,1.50
2023-01-22T07:25:37.464Z,1.50
2023-01-22T07:28:06.817Z,1.50
2023-01-22T07:30:34.293Z,1.50
2023-01-22T07:33:02.961Z,1.40
2023-01-22T07:35:33.073Z,1.30
2023-01-22T07:38:00.838Z,1.40
2023-01-22T07:40:28.582Z,1.40
2023-01-22T07:42:56.421Z,1.40
2023-01-22T07:45:24.996Z,1.30
2023-01-22T07:47:55.252Z,1.30
2023-01-22T07:50:27.820Z,1.20
2023-01-22T07:52:55.723Z,1.30
2023-01-22T07:55:25.516Z,1.50
2023-01-22T07:58:04.988Z,1.50
2023-01-22T08:00:34.943Z,1.50
2023-01-22T08:03:06.058Z,1.50
2023-01-22T08:05:33.535Z,1.50
2023-01-22T08:08:00.864Z,1.60
2023-01-22T08:10:28.188Z,1.70
2023-01-22T08:12:57.629Z,1.70
2023-01-22T08:15:24.986Z,1.90
2023-01-22T08:17:52.293Z,2.00
2023-01-22T08:20:24.340Z,1.90
2023-01-22T08:22:58.612Z,2.10
2023-01-22T08:25:27.284Z,2.20
2023-01-22T08:27:55.043Z,2.10
2023-01-22T08:30:22.887Z,2.30
2023-01-22T08:32:52.495Z,2.30
2023-01-22T08:35:19.880Z,2.30
2023-01-22T08:37:47.147Z,2.20
2023-01-22T08:40:14.506Z,2.20
2023-01-22T08:42:41.980Z,2.10
2023-01-22T08:45:09.806Z,2.00
2023-01-22T08:47:37.062Z,2.20
2023-01-22T08:50:04.725Z,2.30
2023-01-22T08:52:31.979Z,2.60
2023-01-22T08:54:59.218Z,2.60
2023-01-22T08:57:26.472Z,2.80
2023-01-22T09:00:01.361Z,2.70
2023-01-22T09:02:31.242Z,2.60
2023-01-22T09:05:00.710Z,2.40
2023-01-22T09:07:27.976Z,2.50
2023-01-22T09:09:55.223Z,2.50
2023-01-22T09:12:22.487Z,2.70
2023-01-22T09:14:52.180Z,2.60
2023-01-22T09:17:19.422Z,2.70
2023-01-22T09:19:49.340Z,2.50
2023-01-22T09:22:16.666Z,2.60
2023-01-22T09:24:46.330Z,2.60
2023-01-22T09:27:13.607Z,2.50
2023-01-22T09:29:41.095Z,2.50
2023-01-22T09:32:08.318Z,2.80
2023-01-22T09:34:38.112Z,2.90
2023-01-22T09:37:07.889Z,2.90
2023-01-22T09:39:40.146Z,2.80
2023-01-22T09:42:17.615Z,2.90
2023-01-22T09:44:47.804Z,3.00
2023-01-22T09:47:47.454Z,3.10
2023-01-22T09:50:27.172Z,3.10
2023-01-22T09:52:57.576Z,3.00
2023-01-22T09:55:30.781Z,3.10
2023-01-22T09:58:05.831Z,3.10
2023-01-22T10:00:39.670Z,2.90
2023-01-22T10:03:39.120Z,2.90
2023-01-22T10:06:22.975Z,2.80
2023-01-22T10:09:08.996Z,2.90
2023-01-22T10:11:41.949Z,3.00
2023-01-22T10:14:15.677Z,3.20
2023-01-22T10:16:43.213Z,3.40
2023-01-22T10:19:27.159Z,3.50
2023-01-22T10:22:13.441Z,3.20
2023-01-22T10:24:42.922Z,2.90
2023-01-22T10:27:14.353Z,2.80
2023-01-22T10:29:48.681Z,2.80
2023-01-22T10:32:30.220Z,3.00
2023-01-22T10:35:06.585Z,3.20
2023-01-22T10:37:46.060Z,3.40
2023-01-22T10:40:27.301Z,3.60
2023-01-22T10:43:11.958Z,3.60
2023-01-22T10:45:51.464Z,3.60
2023-01-22T10:48:19.400Z,3.80
2023-01-22T10:50:59.368Z,3.90
2023-01-22T10:53:36.252Z,3.70
2023-01-22T10:56:12.454Z,3.80
2023-01-22T10:58:45.938Z,3.80
2023-01-22T11:01:33.569Z,3.80
2023-01-22T11:04:13.498Z,3.80
2023-01-22T11:06:45.567Z,3.70
2023-01-22T11:09:31.771Z,3.60
2023-01-22T11:12:23.057Z,3.70
2023-01-22T11:15:03.209Z,3.70
2023-01-22T11:17:38.701Z,3.50
2023-01-22T11:20:37.147Z,3.60
2023-01-22T11:23:09.890Z,3.40
2023-01-22T11:25:53.275Z,3.70
2023-01-22T11:28:20.576Z,3.90
2023-01-22T11:31:14.333Z,4.00
2023-01-22T11:34:12.202Z,3.90
2023-01-22T11:36:55.280Z,4.00
2023-01-22T11:40:03.095Z,4.00
2023-01-22T11:42:36.303Z,4.10
2023-01-22T11:45:11.776Z,4.00
2023-01-22T11:47:57.167Z,3.90
2023-01-22T11:50:24.558Z,4.00
2023-01-22T11:53:00.573Z,4.00
2023-01-22T11:55:59.155Z,3.90
2023-01-22T11:58:53.579Z,3.90
2023-01-22T12:01:25.720Z,4.00
2023-01-22T12:04:10.704Z,4.00
2023-01-22T12:06:37.970Z,4.00
2023-01-22T12:09:18.971Z,4.10
2023-01-22T12:12:29.150Z,4.30
2023-01-22T12:15:15.662Z,4.20
2023-01-22T12:17:49.156Z,4.20
2023-01-22T12:20:46.644Z,4.20
2023-01-22T12:23:27.562Z,4.10
2023-01-22T12:26:15.030Z,4.20
2023-01-22T12:28:46.068Z,4.40
2023-01-22T12:31:45.966Z,4.30
2023-01-22T12:34:26.070Z,4.20
2023-01-22T12:36:55.302Z,4.30
2023-01-22T12:39:30.632Z,4.20
2023-01-22T12:42:06.306Z,4.20
2023-01-22T12:45:03.264Z,4.20
2023-01-22T12:47:40.395Z,4.20
2023-01-22T12:50:20.162Z,4.30
2023-01-22T12:53:05.778Z,4.20
2023-01-22T12:55:41.637Z,4.30
2023-01-22T12:58:31.701Z,4.40
2023-01-22T13:01:03.877Z,4.50
2023-01-22T13:03:34.315Z,4.60
2023-01-22T13:06:29.307Z,4.60
2023-01-22T13:08:58.832Z,4.60
2023-01-22T13:11:32.015Z,4.10
2023-01-22T13:14:22.593Z,4.10
2023-01-22T13:16:57.159Z,4.00
2023-01-22T13:19:38.803Z,4.00
2023-01-22T13:22:08.767Z,3.90
2023-01-22T13:24:36.004Z,4.00
2023-01-22T13:27:03.828Z,3.70
2023-01-22T13:29:37.537Z,3.70
2023-01-22T13:32:20.406Z,3.90
2023-01-22T13:34:50.080Z,4.00
2023-01-22T13:37:22.946Z,4.00
2023-01-22T13:39:52.988Z,4.10
2023-01-22T13:42:24.691Z,4.20
2023-01-22T13:44:58.836Z,4.20
2023-01-22T13:47:28.258Z,4.30
2023-01-22T13:49:58.229Z,4.30
2023-01-22T13:52:29.081Z,4.20
2023-01-22T13:55:01.201Z,4.30
2023-01-22T13:57:30.716Z,3.90
2023-01-22T14:00:02.726Z,3.90
2023-01-22T14:02:35.081Z,3.70
2023-01-22T14:05:02.705Z,3.60
2023-01-22T14:07:33.502Z,3.70
2023-01-22T14:10:18.417Z,3.70
2023-01-22T14:12:45.858Z,3.80
2023-01-22T14:15:16.071Z,3.70
2023-01-22T14:17:43.764Z,3.60
2023-01-22T14:20:14.991Z,3.80
2023-01-22T14:22:44.555Z,3.70
2023-01-22T14:25:11.784Z,3.60
2023-01-22T14:27:47.772Z,3.50
2023-01-22T14:30:20.852Z,3.50
2023-01-22T14:32:48.501Z,3.40
2023-01-22T14:35:21.534Z,3.40
2023-01-22T14:37:49.203Z,3.50
2023-01-22T14:40:17.856Z,3.20
2023-01-22T14:42:46.894Z,3.10
2023-01-22T14:45:18.913Z,3.10
2023-01-22T14:47:51.522Z,3.20
2023-01-22T14:50:22.889Z,3.20
2023-01-22T14:52:55.764Z,3.10
2023-01-22T14:55:23.137Z,3.20
2023-01-22T14:57:52.521Z,3.10
2023-01-22T15:00:20.252Z,3.10
2023-01-22T15:02:49.837Z,3.10
2023-01-22T15:05:21.563Z,3.00
2023-01-22T15:07:53.454Z,3.10
2023-01-22T15:10:21.129Z,3.10
2023-01-22T15:12:51.407Z,3.30
2023-01-22T15:15:26.410Z,3.40
2023-01-22T15:17:54.843Z,3.60
2023-01-22T15:20:24.907Z,3.60
2023-01-22T15:22:52.264Z,3.80
2023-01-22T15:25:19.785Z,3.80
2023-01-22T15:27:49.360Z,3.80
2023-01-22T15:30:16.964Z,3.90
2023-01-22T15:32:44.381Z,4.00
2023-01-22T15:35:11.728Z,4.00
2023-01-22T15:37:41.605Z,4.00
2023-01-22T15:40:10.256Z,3.80
2023-01-22T15:42:37.628Z,3.90
2023-01-22T15:45:08.095Z,4.00
2023-01-22T15:47:35.373Z,4.10
2023-01-22T15:50:05.043Z,4.20
2023-01-22T15:52:32.265Z,4.10
2023-01-22T15:55:01.826Z,4.20
2023-01-22T15:57:31.374Z,4.20
2023-01-22T16:00:00.819Z,4.30
2023-01-22T16:02:30.477Z,4.30
2023-01-22T16:04:57.746Z,4.30
2023-01-22T16:07:25.002Z,4.20
2023-01-22T16:09:54.755Z,3.90
2023-01-22T16:12:24.596Z,3.90
2023-01-22T16:14:51.879Z,3.90
2023-01-22T16:17:21.629Z,3.90
2023-01-22T16:19:51.325Z,3.90
2023-01-22T16:22:20.806Z,4.00
2023-01-22T16:24:52.375Z,3.80
2023-01-22T16:27:21.866Z,3.70
2023-01-22T16:29:49.188Z,3.80
2023-01-22T16:32:16.420Z,3.80
2023-01-22T16:34:46.059Z,3.80
2023-01-22T16:37:13.314Z,3.80
2023-01-22T16:39:40.691Z,3.70
2023-01-22T16:42:07.965Z,3.60
2023-01-22T16:44:35.307Z,3.60
2023-01-22T16:47:02.664Z,3.50
2023-01-22T16:49:32.967Z,3.60
2023-01-22T16:52:20.790Z,3.70
2023-01-22T16:54:49.678Z,3.60
2023-01-22T16:57:20.224Z,3.50
2023-01-22T16:59:50.460Z,3.50
2023-01-22T17:02:19.331Z,3.50
2023-01-22T17:04:46.943Z,3.70
2023-01-22T17:07:32.354Z,3.70
2023-01-22T17:10:00.984Z,3.70
2023-01-22T17:12:28.369Z,3.80
2023-01-22T17:14:55.624Z,3.90
2023-01-22T17:17:25.413Z,3.90
2023-01-22T17:19:54.920Z,3.90
2023-01-22T17:22:24.763Z,4.00
2023-01-22T17:24:52.661Z,4.00
2023-01-22T17:27:21.538Z,4.10
2023-01-22T17:29:48.848Z,3.80
2023-01-22T17:32:16.139Z,3.70
2023-01-22T17:34:43.368Z,3.60
2023-01-22T17:37:15.205Z,3.40
2023-01-22T17:39:50.545Z,3.50
2023-01-22T17:42:21.579Z,3.70
2023-01-22T17:44:51.045Z,3.70
2023-01-22T17:47:20.551Z,3.80
2023-01-22T17:49:49.072Z,3.80
2023-01-22T17:52:17.998Z,4.00
2023-01-22T17:54:45.297Z,4.00
2023-01-22T17:57:12.828Z,4.10
2023-01-22T17:59:40.204Z,4.10
2023-01-22T18:02:07.469Z,4.00
2023-01-22T18:04:37.327Z,3.80
2023-01-22T18:07:05.029Z,3.90
2023-01-22T18:09:32.424Z,3.80
2023-01-22T18:12:00.457Z,3.90
2023-01-22T18:14:30.987Z,4.00
2023-01-22T18:17:00.422Z,4.00
2023-01-22T18:19:28.095Z,4.20
2023-01-22T18:21:57.764Z,4.30
2023-01-22T18:24:27.431Z,4.30
2023-01-22T18:26:58.628Z,4.40
2023-01-22T18:29:26.718Z,4.40
2023-01-22T18:31:54.122Z,4.40
2023-01-22T18:34:26.118Z,4.40
2023-01-22T18:36:55.571Z,4.30
2023-01-22T18:39:25.948Z,4.20
2023-01-22T18:41:53.245Z,4.30
2023-01-22T18:44:21.555Z,4.30
2023-01-22T18:46:51.828Z,4.50
2023-01-22T18:49:22.908Z,4.40
2023-01-22T18:51:50.198Z,4.40
2023-01-22T18:54:20.436Z,4.20
2023-01-22T18:56:50.468Z,4.10
2023-01-22T18:59:17.860Z,4.10
2023-01-22T19:01:51.387Z,4.10
2023-01-22T19:04:21.887Z,4.20
2023-01-22T19:06:54.187Z,4.00
2023-01-22T19:09:21.902Z,4.00
2023-01-22T19:11:51.907Z,3.90
2023-01-22T19:14:21.144Z,3.90
2023-01-22T19:16:52.633Z,4.00
2023-01-22T19:19:20.509Z,3.90
2023-01-22T19:21:52.776Z,3.90
2023-01-22T19:24:26.902Z,3.90
2023-01-22T19:26:55.903Z,3.80
2023-01-22T19:29:26.442Z,3.70
2023-01-22T19:31:57.177Z,3.90
2023-01-22T19:34:25.631Z,3.90
2023-01-22T19:36:55.914Z,3.80
2023-01-22T19:39:26.648Z,3.70
2023-01-22T19:41:55.228Z,3.60
2023-01-22T19:44:25.095Z,3.70
2023-01-22T19:46:52.455Z,3.60
2023-01-22T19:49:20.091Z,3.60
2023-01-22T19:51:51.125Z,3.40
2023-01-22T19:54:19.509Z,3.50
2023-01-22T19:56:48.988Z,3.70
2023-01-22T19:59:19.294Z,3.80
2023-01-22T20:01:50.413Z,3.70
2023-01-22T20:04:25.044Z,3.70
2023-01-22T20:06:57.704Z,3.70
2023-01-22T20:09:25.265Z,3.50
2023-01-22T20:11:54.530Z,3.50
2023-01-22T20:14:23.583Z,3.50
2023-01-22T20:16:51.357Z,3.40
2023-01-22T20:19:18.684Z,3.40
2023-01-22T20:21:45.966Z,3.40
2023-01-22T20:24:13.346Z,3.60
2023-01-22T20:26:40.654Z,3.70
2023-01-22T20:29:12.133Z,3.70
2023-01-22T20:31:42.165Z,3.70
2023-01-22T20:34:09.506Z,3.40
2023-01-22T20:36:36.866Z,3.30
2023-01-22T20:39:06.376Z,3.30
2023-01-22T20:41:34.434Z,3.40
2023-01-22T20:44:02.206Z,3.40
2023-01-22T20:46:29.587Z,3.40
2023-01-22T20:48:58.639Z,3.40
2023-01-22T20:51:29.307Z,3.50
2023-01-22T20:54:00.163Z,3.40
2023-01-22T20:56:33.686Z,3.30
2023-01-22T20:59:06.723Z,3.30
2023-01-22T21:01:34.677Z,3.20
2023-01-22T21:04:03.871Z,3.30
2023-01-22T21:06:35.772Z,3.30
2023-01-22T21:09:06.677Z,3.40
2023-01-22T21:11:38.854Z,3.30
2023-01-22T21:14:12.771Z,3.10
2023-01-22T21:16:44.951Z,3.00
2023-01-22T21:19:18.563Z,2.80
2023-01-22T21:21:46.337Z,2.80
2023-01-22T21:24:13.960Z,2.60
2023-01-22T21:26:47.504Z,2.50
2023-01-22T21:29:20.694Z,2.50
2023-01-22T21:31:49.693Z,2.40
2023-01-22T21:34:25.973Z,2.40
2023-01-22T21:36:58.678Z,2.40
2023-01-22T21:39:29.579Z,2.40
2023-01-22T21:42:16.169Z,2.50
2023-01-22T21:45:03.058Z,2.30
2023-01-22T21:47:30.723Z,2.50
2023-01-22T21:49:58.036Z,2.50
2023-01-22T21:52:27.813Z,2.60
2023-01-22T21:54:55.182Z,2.70
2023-01-22T21:57:24.589Z,2.60
2023-01-22T21:59:54.507Z,2.70
2023-01-22T22:02:22.348Z,2.70
2023-01-22T22:04:49.835Z,2.80
2023-01-22T22:07:18.134Z,3.00
2023-01-22T22:09:45.745Z,3.20
2023-01-22T22:12:13.058Z,3.50
2023-01-22T22:14:42.893Z,3.70
2023-01-22T22:17:10.829Z,3.90
2023-01-22T22:19:38.215Z,4.10
2023-01-22T22:22:07.575Z,4.30
2023-01-22T22:24:34.819Z,4.40
2023-01-22T22:27:06.705Z,4.50
2023-01-22T22:29:34.017Z,4.60
2023-01-22T22:32:01.380Z,4.70
2023-01-22T22:34:31.269Z,4.80
2023-01-22T22:37:00.750Z,4.90
2023-01-22T22:39:32.595Z,4.90
2023-01-22T22:41:59.839Z,5.00
2023-01-22T22:44:27.080Z,5.00
2023-01-22T22:46:56.608Z,5.00
2023-01-22T22:49:26.071Z,5.00
2023-01-22T22:51:53.303Z,5.00
2023-01-22T22:54:20.797Z,5.00
2023-01-22T22:56:49.242Z,5.10
2023-01-22T22:59:18.619Z,5.10
2023-01-22T23:01:45.872Z,4.90
2023-01-22T23:04:13.538Z,4.90
2023-01-22T23:06:44.055Z,5.00
2023-01-22T23:09:13.723Z,5.10
2023-01-22T23:11:41.102Z,5.00
2023-01-22T23:14:12.256Z,5.10
2023-01-22T23:16:44.887Z,5.10
2023-01-22T23:19:15.501Z,5.10
2023-01-22T23:21:45.529Z,5.20
2023-01-22T23:24:14.404Z,5.20
2023-01-22T23:26:43.188Z,5.20
2023-01-22T23:29:12.467Z,5.20
2023-01-22T23:31:41.011Z,5.20
2023-01-22T23:34:12.764Z,5.10
2023-01-22T23:36:43.569Z,5.10
2023-01-22T23:39:12.456Z,5.20
2023-01-22T23:41:39.889Z,5.20
2023-01-22T23:44:07.291Z,5.20
2023-01-22T23:46:36.926Z,5.20
2023-01-22T23:49:04.708Z,5.30
2023-01-22T23:51:32.362Z,5.40
2023-01-22T23:54:02.068Z,5.40
2023-01-22T23:56:32.464Z,5.40
2023-01-22T23:58:59.994Z,5.40
